sensor_id;sensor_type;location;lat;lon;timestamp;pressure;altitude;pressure_sealevel;temperature;humidity
27144;BME280;14672;50.250;8.312;2022-07-06T00:02:16;99540.00;;;19.14;55.47
27144;BME280;14672;50.250;8.312;2022-07-06T00:04:42;99543.75;;;19.20;55.67
27144;BME280;14672;50.250;8.312;2022-07-06T00:07:07;99542.00;;;19.08;56.09
27144;BME280;14672;50.250;8.312;2022-07-06T00:09:34;99538.63;;;19.09;56.00
27144;BME280;14672;50.250;8.312;2022-07-06T00:12:00;99549.94;;;19.13;56.55
27144;BME280;14672;50.250;8.312;2022-07-06T00:14:26;99542.44;;;19.01;57.17
27144;BME280;14672;50.250;8.312;2022-07-06T00:16:52;99544.59;;;19.06;56.40
27144;BME280;14672;50.250;8.312;2022-07-06T00:19:17;99549.41;;;18.94;56.98
27144;BME280;14672;50.250;8.312;2022-07-06T00:21:43;99545.72;;;18.94;56.75
27144;BME280;14672;50.250;8.312;2022-07-06T00:24:09;99546.00;;;18.96;56.63
27144;BME280;14672;50.250;8.312;2022-07-06T00:26:35;99543.56;;;18.89;56.83
27144;BME280;14672;50.250;8.312;2022-07-06T00:29:01;99541.38;;;18.84;56.94
27144;BME280;14672;50.250;8.312;2022-07-06T00:31:26;99535.91;;;18.86;56.93
27144;BME280;14672;50.250;8.312;2022-07-06T00:33:52;99547.31;;;18.95;56.21
27144;BME280;14672;50.250;8.312;2022-07-06T00:36:18;99541.28;;;18.78;56.92
27144;BME280;14672;50.250;8.312;2022-07-06T00:38:44;99542.88;;;18.79;56.55
27144;BME280;14672;50.250;8.312;2022-07-06T00:41:11;99549.34;;;18.74;56.50
27144;BME280;14672;50.250;8.312;2022-07-06T00:43:55;99544.66;;;18.76;56.49
27144;BME280;14672;50.250;8.312;2022-07-06T00:46:31;99544.88;;;18.73;56.35
27144;BME280;14672;50.250;8.312;2022-07-06T00:48:57;99543.78;;;18.70;56.56
27144;BME280;14672;50.250;8.312;2022-07-06T00:51:28;99542.69;;;18.68;56.46
27144;BME280;14672;50.250;8.312;2022-07-06T00:53:59;99541.50;;;18.60;56.64
27144;BME280;14672;50.250;8.312;2022-07-06T00:56:30;99544.69;;;18.62;56.75
27144;BME280;14672;50.250;8.312;2022-07-06T00:58:57;99535.84;;;18.51;57.29
27144;BME280;14672;50.250;8.312;2022-07-06T01:01:23;99534.06;;;18.53;57.17
27144;BME280;14672;50.250;8.312;2022-07-06T01:03:49;99542.50;;;18.42;57.15
27144;BME280;14672;50.250;8.312;2022-07-06T01:06:15;99545.06;;;18.25;57.45
27144;BME280;14672;50.250;8.312;2022-07-06T01:08:41;99536.13;;;18.23;57.92
27144;BME280;14672;50.250;8.312;2022-07-06T01:11:07;99536.31;;;18.20;57.74
27144;BME280;14672;50.250;8.312;2022-07-06T01:13:33;99537.91;;;18.21;57.73
27144;BME280;14672;50.250;8.312;2022-07-06T01:15:59;99551.97;;;18.04;57.93
27144;BME280;14672;50.250;8.312;2022-07-06T01:18:25;99553.09;;;18.07;57.75
27144;BME280;14672;50.250;8.312;2022-07-06T01:20:51;99544.88;;;18.14;57.66
27144;BME280;14672;50.250;8.312;2022-07-06T01:23:17;99545.88;;;18.11;57.70
27144;BME280;14672;50.250;8.312;2022-07-06T01:25:43;99551.97;;;18.04;58.01
27144;BME280;14672;50.250;8.312;2022-07-06T01:28:09;99554.66;;;18.08;57.57
27144;BME280;14672;50.250;8.312;2022-07-06T01:30:35;99551.97;;;18.04;57.76
27144;BME280;14672;50.250;8.312;2022-07-06T01:33:01;99549.97;;;17.96;58.26
27144;BME280;14672;50.250;8.312;2022-07-06T01:35:29;99555.56;;;17.99;58.31
27144;BME280;14672;50.250;8.312;2022-07-06T01:37:57;99552.09;;;17.95;58.15
27144;BME280;14672;50.250;8.312;2022-07-06T01:40:23;99550.75;;;17.81;58.51
27144;BME280;14672;50.250;8.312;2022-07-06T01:42:48;99555.22;;;17.82;58.27
27144;BME280;14672;50.250;8.312;2022-07-06T01:45:14;99554.69;;;17.69;58.55
27144;BME280;14672;50.250;8.312;2022-07-06T01:47:40;99557.38;;;17.73;58.45
27144;BME280;14672;50.250;8.312;2022-07-06T01:50:08;99555.50;;;17.84;58.23
27144;BME280;14672;50.250;8.312;2022-07-06T01:52:34;99541.13;;;17.70;58.44
27144;BME280;14672;50.250;8.312;2022-07-06T01:55:00;99540.31;;;17.69;58.37
27144;BME280;14672;50.250;8.312;2022-07-06T01:57:26;99544.47;;;17.68;58.66
27144;BME280;14672;50.250;8.312;2022-07-06T01:59:52;99542.81;;;17.53;59.26
27144;BME280;14672;50.250;8.312;2022-07-06T02:02:18;99553.47;;;17.61;58.79
27144;BME280;14672;50.250;8.312;2022-07-06T02:04:44;99554.09;;;17.56;59.08
27144;BME280;14672;50.250;8.312;2022-07-06T02:07:10;99566.13;;;17.55;58.80
27144;BME280;14672;50.250;8.312;2022-07-06T02:09:36;99554.97;;;17.48;58.45
27144;BME280;14672;50.250;8.312;2022-07-06T02:12:02;99557.97;;;17.53;58.80
27144;BME280;14672;50.250;8.312;2022-07-06T02:14:28;99555.16;;;17.44;58.45
27144;BME280;14672;50.250;8.312;2022-07-06T02:16:54;99556.28;;;17.23;58.97
27144;BME280;14672;50.250;8.312;2022-07-06T02:19:19;99554.97;;;17.24;58.52
27144;BME280;14672;50.250;8.312;2022-07-06T02:21:45;99553.00;;;17.06;59.18
27144;BME280;14672;50.250;8.312;2022-07-06T02:24:11;99555.41;;;17.08;59.21
27144;BME280;14672;50.250;8.312;2022-07-06T02:26:37;99538.47;;;17.10;58.96
27144;BME280;14672;50.250;8.312;2022-07-06T02:29:03;99543.22;;;17.13;58.90
27144;BME280;14672;50.250;8.312;2022-07-06T02:31:28;99550.94;;;17.07;59.12
27144;BME280;14672;50.250;8.312;2022-07-06T02:33:54;99554.44;;;17.11;59.30
27144;BME280;14672;50.250;8.312;2022-07-06T02:36:21;99549.34;;;17.06;59.25
27144;BME280;14672;50.250;8.312;2022-07-06T02:38:47;99554.78;;;17.04;59.11
27144;BME280;14672;50.250;8.312;2022-07-06T02:41:13;99549.28;;;16.91;59.64
27144;BME280;14672;50.250;8.312;2022-07-06T02:43:39;99552.31;;;16.87;59.37
27144;BME280;14672;50.250;8.312;2022-07-06T02:46:05;99552.25;;;16.97;59.56
27144;BME280;14672;50.250;8.312;2022-07-06T02:48:31;99557.19;;;16.96;59.44
27144;BME280;14672;50.250;8.312;2022-07-06T02:50:57;99563.13;;;16.92;59.39
27144;BME280;14672;50.250;8.312;2022-07-06T02:53:24;99559.16;;;16.90;59.78
27144;BME280;14672;50.250;8.312;2022-07-06T02:55:50;99567.94;;;16.86;59.41
27144;BME280;14672;50.250;8.312;2022-07-06T02:58:16;99565.09;;;16.77;59.50
27144;BME280;14672;50.250;8.312;2022-07-06T03:00:42;99560.78;;;16.82;59.54
27144;BME280;14672;50.250;8.312;2022-07-06T03:03:07;99552.31;;;16.87;59.22
27144;BME280;14672;50.250;8.312;2022-07-06T03:05:34;99567.94;;;16.86;58.97
27144;BME280;14672;50.250;8.312;2022-07-06T03:08:00;99569.84;;;16.89;58.96
27144;BME280;14672;50.250;8.312;2022-07-06T03:10:27;99580.91;;;16.73;58.70
27144;BME280;14672;50.250;8.312;2022-07-06T03:12:52;99575.03;;;16.67;59.24
27144;BME280;14672;50.250;8.312;2022-07-06T03:15:18;99567.41;;;16.46;59.65
27144;BME280;14672;50.250;8.312;2022-07-06T03:17:44;99563.63;;;16.31;60.51
27144;BME280;14672;50.250;8.312;2022-07-06T03:20:10;99572.84;;;16.44;60.18
27144;BME280;14672;50.250;8.312;2022-07-06T03:22:36;99579.34;;;16.44;60.45
27144;BME280;14672;50.250;8.312;2022-07-06T03:25:02;99589.91;;;16.38;60.32
27144;BME280;14672;50.250;8.312;2022-07-06T03:27:31;99584.63;;;16.37;60.05
27144;BME280;14672;50.250;8.312;2022-07-06T03:29:57;99585.94;;;16.36;59.83
27144;BME280;14672;50.250;8.312;2022-07-06T03:32:23;99586.59;;;16.22;60.61
27144;BME280;14672;50.250;8.312;2022-07-06T03:34:49;99582.56;;;16.37;60.47
27144;BME280;14672;50.250;8.312;2022-07-06T03:37:15;99603.28;;;16.32;60.67
27144;BME280;14672;50.250;8.312;2022-07-06T03:39:41;99599.03;;;16.19;60.69
27144;BME280;14672;50.250;8.312;2022-07-06T03:42:07;99601.22;;;16.42;60.19
27144;BME280;14672;50.250;8.312;2022-07-06T03:44:33;99602.81;;;16.43;60.46
27144;BME280;14672;50.250;8.312;2022-07-06T03:46:58;99609.53;;;16.31;60.99
27144;BME280;14672;50.250;8.312;2022-07-06T03:49:24;99606.00;;;16.36;60.53
27144;BME280;14672;50.250;8.312;2022-07-06T03:51:52;99600.75;;;16.34;60.29
27144;BME280;14672;50.250;8.312;2022-07-06T03:54:18;99613.47;;;16.42;60.45
27144;BME280;14672;50.250;8.312;2022-07-06T03:56:44;99614.16;;;16.19;60.76
27144;BME280;14672;50.250;8.312;2022-07-06T03:59:10;99608.56;;;16.25;60.43
27144;BME280;14672;50.250;8.312;2022-07-06T04:01:36;99617.31;;;16.30;60.47
27144;BME280;14672;50.250;8.312;2022-07-06T04:04:02;99622.59;;;16.23;59.88
27144;BME280;14672;50.250;8.312;2022-07-06T04:06:27;99629.59;;;16.13;60.47
27144;BME280;14672;50.250;8.312;2022-07-06T04:08:53;99627.69;;;16.01;61.05
27144;BME280;14672;50.250;8.312;2022-07-06T04:11:19;99635.97;;;16.08;61.39
27144;BME280;14672;50.250;8.312;2022-07-06T04:13:45;99635.47;;;16.09;61.71
27144;BME280;14672;50.250;8.312;2022-07-06T04:16:11;99626.25;;;16.23;62.00
27144;BME280;14672;50.250;8.312;2022-07-06T04:18:37;99624.50;;;16.35;62.33
27144;BME280;14672;50.250;8.312;2022-07-06T04:21:03;99637.06;;;16.47;61.45
27144;BME280;14672;50.250;8.312;2022-07-06T04:23:29;99628.44;;;16.47;61.33
27144;BME280;14672;50.250;8.312;2022-07-06T04:25:55;99629.38;;;16.53;62.16
27144;BME280;14672;50.250;8.312;2022-07-06T04:28:21;99641.19;;;16.55;62.60
27144;BME280;14672;50.250;8.312;2022-07-06T04:30:47;99646.13;;;16.63;61.85
27144;BME280;14672;50.250;8.312;2022-07-06T04:33:15;99645.78;;;16.70;62.01
27144;BME280;14672;50.250;8.312;2022-07-06T04:35:41;99644.81;;;16.73;62.56
27144;BME280;14672;50.250;8.312;2022-07-06T04:38:08;99650.03;;;16.84;62.44
27144;BME280;14672;50.250;8.312;2022-07-06T04:40:34;99647.31;;;16.99;62.51
27144;BME280;14672;50.250;8.312;2022-07-06T04:43:00;99648.56;;;16.98;62.63
27144;BME280;14672;50.250;8.312;2022-07-06T04:45:26;99648.22;;;17.05;62.34
27144;BME280;14672;50.250;8.312;2022-07-06T04:47:52;99645.81;;;17.12;61.77
27144;BME280;14672;50.250;8.312;2022-07-06T04:50:17;99647.13;;;17.02;61.88
27144;BME280;14672;50.250;8.312;2022-07-06T04:52:43;99656.16;;;17.19;61.57
27144;BME280;14672;50.250;8.312;2022-07-06T04:55:09;99647.84;;;17.21;61.85
27144;BME280;14672;50.250;8.312;2022-07-06T04:57:36;99653.09;;;17.22;61.82
27144;BME280;14672;50.250;8.312;2022-07-06T05:00:04;99658.50;;;17.29;61.62
27144;BME280;14672;50.250;8.312;2022-07-06T05:02:30;99646.16;;;17.38;61.53
27144;BME280;14672;50.250;8.312;2022-07-06T05:04:56;99649.94;;;17.44;61.74
27144;BME280;14672;50.250;8.312;2022-07-06T05:07:22;99648.06;;;17.41;61.68
27144;BME280;14672;50.250;8.312;2022-07-06T05:09:48;99656.03;;;17.46;61.21
27144;BME280;14672;50.250;8.312;2022-07-06T05:12:14;99655.41;;;17.42;62.23
27144;BME280;14672;50.250;8.312;2022-07-06T05:14:40;99650.94;;;17.41;62.12
27144;BME280;14672;50.250;8.312;2022-07-06T05:17:05;99646.78;;;17.42;61.76
27144;BME280;14672;50.250;8.312;2022-07-06T05:19:31;99646.75;;;17.51;61.84
27144;BME280;14672;50.250;8.312;2022-07-06T05:21:57;99645.06;;;17.68;61.30
27144;BME280;14672;50.250;8.312;2022-07-06T05:24:23;99655.59;;;17.71;61.25
27144;BME280;14672;50.250;8.312;2022-07-06T05:26:48;99645.84;;;17.69;61.56
27144;BME280;14672;50.250;8.312;2022-07-06T05:29:14;99655.41;;;17.75;61.25
27144;BME280;14672;50.250;8.312;2022-07-06T05:31:40;99658.81;;;17.88;60.49
27144;BME280;14672;50.250;8.312;2022-07-06T05:34:06;99658.19;;;17.84;61.09
27144;BME280;14672;50.250;8.312;2022-07-06T05:36:32;99659.75;;;17.94;60.86
27144;BME280;14672;50.250;8.312;2022-07-06T05:38:58;99646.16;;;17.95;61.20
27144;BME280;14672;50.250;8.312;2022-07-06T05:41:24;99653.97;;;18.18;60.42
27144;BME280;14672;50.250;8.312;2022-07-06T05:43:50;99646.94;;;18.34;59.40
27144;BME280;14672;50.250;8.312;2022-07-06T05:46:16;99645.28;;;18.42;58.49
27144;BME280;14672;50.250;8.312;2022-07-06T05:48:41;99647.34;;;18.41;58.24
27144;BME280;14672;50.250;8.312;2022-07-06T05:51:26;99651.50;;;18.40;58.61
27144;BME280;14672;50.250;8.312;2022-07-06T05:53:52;99646.47;;;18.50;58.50
27144;BME280;14672;50.250;8.312;2022-07-06T05:56:17;99641.34;;;18.54;57.85
27144;BME280;14672;50.250;8.312;2022-07-06T05:58:43;99655.22;;;18.55;58.11
27144;BME280;14672;50.250;8.312;2022-07-06T06:01:09;99650.59;;;18.58;57.71
27144;BME280;14672;50.250;8.312;2022-07-06T06:03:35;99650.31;;;18.70;57.48
27144;BME280;14672;50.250;8.312;2022-07-06T06:06:01;99659.63;;;18.80;57.09
27144;BME280;14672;50.250;8.312;2022-07-06T06:08:27;99643.34;;;18.77;56.90
27144;BME280;14672;50.250;8.312;2022-07-06T06:10:54;99655.44;;;18.81;56.66
27144;BME280;14672;50.250;8.312;2022-07-06T06:13:19;99641.56;;;18.94;56.49
27144;BME280;14672;50.250;8.312;2022-07-06T06:15:45;99647.13;;;18.98;56.35
27144;BME280;14672;50.250;8.312;2022-07-06T06:18:11;99642.31;;;19.09;56.49
27144;BME280;14672;50.250;8.312;2022-07-06T06:20:37;99656.81;;;19.15;55.62
27144;BME280;14672;50.250;8.312;2022-07-06T06:23:03;99646.78;;;19.25;55.57
27144;BME280;14672;50.250;8.312;2022-07-06T06:25:35;99645.03;;;19.48;55.65
27144;BME280;14672;50.250;8.312;2022-07-06T06:28:04;99652.63;;;19.45;55.50
27144;BME280;14672;50.250;8.312;2022-07-06T06:30:31;99644.72;;;19.60;54.72
27144;BME280;14672;50.250;8.312;2022-07-06T06:33:14;99650.63;;;19.72;54.85
27144;BME280;14672;50.250;8.312;2022-07-06T06:35:49;99639.09;;;19.72;54.15
27144;BME280;14672;50.250;8.312;2022-07-06T06:38:17;99638.53;;;19.88;54.33
27144;BME280;14672;50.250;8.312;2022-07-06T06:40:43;99640.47;;;19.96;53.45
27144;BME280;14672;50.250;8.312;2022-07-06T06:43:09;99644.75;;;20.01;53.14
27144;BME280;14672;50.250;8.312;2022-07-06T06:45:35;99654.56;;;20.09;53.08
27144;BME280;14672;50.250;8.312;2022-07-06T06:48:01;99660.00;;;20.07;52.71
27144;BME280;14672;50.250;8.312;2022-07-06T06:50:28;99662.75;;;20.16;52.41
27144;BME280;14672;50.250;8.312;2022-07-06T06:52:54;99661.47;;;20.17;52.46
27144;BME280;14672;50.250;8.312;2022-07-06T06:55:20;99654.69;;;20.20;52.64
27144;BME280;14672;50.250;8.312;2022-07-06T06:57:46;99662.22;;;20.32;52.37
27144;BME280;14672;50.250;8.312;2022-07-06T07:00:13;99658.38;;;20.41;51.98
27144;BME280;14672;50.250;8.312;2022-07-06T07:02:40;99659.88;;;20.36;52.12
27144;BME280;14672;50.250;8.312;2022-07-06T07:05:06;99664.59;;;20.59;51.42
27144;BME280;14672;50.250;8.312;2022-07-06T07:07:33;99666.88;;;20.50;50.64
27144;BME280;14672;50.250;8.312;2022-07-06T07:09:59;99671.41;;;20.56;50.27
27144;BME280;14672;50.250;8.312;2022-07-06T07:12:25;99663.00;;;20.58;49.96
27144;BME280;14672;50.250;8.312;2022-07-06T07:14:52;99672.25;;;20.62;49.59
27144;BME280;14672;50.250;8.312;2022-07-06T07:17:18;99674.88;;;20.60;49.50
27144;BME280;14672;50.250;8.312;2022-07-06T07:19:44;99662.06;;;20.67;49.26
27144;BME280;14672;50.250;8.312;2022-07-06T07:22:10;99666.41;;;20.83;49.43
27144;BME280;14672;50.250;8.312;2022-07-06T07:24:35;99670.72;;;20.93;48.49
27144;BME280;14672;50.250;8.312;2022-07-06T07:27:01;99674.19;;;20.97;48.75
27144;BME280;14672;50.250;8.312;2022-07-06T07:29:27;99671.88;;;21.06;48.24
27144;BME280;14672;50.250;8.312;2022-07-06T07:31:53;99668.34;;;21.17;48.32
27144;BME280;14672;50.250;8.312;2022-07-06T07:34:19;99677.81;;;21.18;48.00
27144;BME280;14672;50.250;8.312;2022-07-06T07:36:45;99664.13;;;21.18;48.11
27144;BME280;14672;50.250;8.312;2022-07-06T07:39:10;99666.75;;;21.16;47.57
27144;BME280;14672;50.250;8.312;2022-07-06T07:41:36;99659.78;;;21.28;46.94
27144;BME280;14672;50.250;8.312;2022-07-06T07:44:02;99660.31;;;21.32;46.46
27144;BME280;14672;50.250;8.312;2022-07-06T07:46:28;99662.97;;;21.04;45.66
27144;BME280;14672;50.250;8.312;2022-07-06T07:48:55;99662.56;;;21.17;46.37
27144;BME280;14672;50.250;8.312;2022-07-06T07:51:21;99652.47;;;21.38;46.31
27144;BME280;14672;50.250;8.312;2022-07-06T07:53:47;99655.84;;;21.31;45.59
27144;BME280;14672;50.250;8.312;2022-07-06T07:56:13;99651.19;;;21.39;46.14
27144;BME280;14672;50.250;8.312;2022-07-06T07:58:38;99656.47;;;21.46;45.93
27144;BME280;14672;50.250;8.312;2022-07-06T08:01:04;99660.03;;;21.62;45.92
27144;BME280;14672;50.250;8.312;2022-07-06T08:03:31;99652.34;;;21.59;45.00
27144;BME280;14672;50.250;8.312;2022-07-06T08:05:58;99650.56;;;21.61;45.61
27144;BME280;14672;50.250;8.312;2022-07-06T08:08:24;99651.34;;;21.25;44.52
27144;BME280;14672;50.250;8.312;2022-07-06T08:10:50;99651.69;;;21.38;45.39
27144;BME280;14672;50.250;8.312;2022-07-06T08:13:15;99642.13;;;21.26;45.31
27144;BME280;14672;50.250;8.312;2022-07-06T08:15:42;99642.78;;;21.41;45.62
27144;BME280;14672;50.250;8.312;2022-07-06T08:18:08;99651.66;;;21.32;44.97
27144;BME280;14672;50.250;8.312;2022-07-06T08:20:36;99643.81;;;21.38;45.18
27144;BME280;14672;50.250;8.312;2022-07-06T08:23:03;99650.66;;;21.41;45.08
27144;BME280;14672;50.250;8.312;2022-07-06T08:25:30;99657.81;;;21.45;44.75
27144;BME280;14672;50.250;8.312;2022-07-06T08:27:56;99648.34;;;21.50;45.25
27144;BME280;14672;50.250;8.312;2022-07-06T08:30:22;99651.72;;;21.43;44.64
27144;BME280;14672;50.250;8.312;2022-07-06T08:32:48;99664.22;;;21.61;45.15
27144;BME280;14672;50.250;8.312;2022-07-06T08:35:14;99655.28;;;21.64;43.58
27144;BME280;14672;50.250;8.312;2022-07-06T08:46:44;99650.31;;;21.65;43.50
27144;BME280;14672;50.250;8.312;2022-07-06T08:49:16;99657.69;;;21.71;43.60
27144;BME280;14672;50.250;8.312;2022-07-06T08:51:42;99655.28;;;21.64;42.81
27144;BME280;14672;50.250;8.312;2022-07-06T08:54:11;99651.41;;;21.78;43.89
27144;BME280;14672;50.250;8.312;2022-07-06T08:56:38;99658.53;;;21.77;43.85
27144;BME280;14672;50.250;8.312;2022-07-06T08:59:04;99660.03;;;21.62;43.64
27144;BME280;14672;50.250;8.312;2022-07-06T09:01:35;99659.72;;;21.60;43.25
27144;BME280;14672;50.250;8.312;2022-07-06T09:04:03;99658.44;;;21.61;43.77
27144;BME280;14672;50.250;8.312;2022-07-06T09:06:31;99655.84;;;21.68;43.61
27144;BME280;14672;50.250;8.312;2022-07-06T09:08:57;99662.19;;;21.78;43.96
27144;BME280;14672;50.250;8.312;2022-07-06T09:11:25;99653.53;;;21.78;43.88
27144;BME280;14672;50.250;8.312;2022-07-06T09:13:51;99645.69;;;21.84;43.57
27144;BME280;14672;50.250;8.312;2022-07-06T09:16:26;99651.53;;;21.95;44.33
27144;BME280;14672;50.250;8.312;2022-07-06T09:18:53;99651.47;;;21.84;43.13
27144;BME280;14672;50.250;8.312;2022-07-06T09:21:31;99666.94;;;21.75;43.14
27144;BME280;14672;50.250;8.312;2022-07-06T09:24:01;99654.44;;;21.58;42.41
27144;BME280;14672;50.250;8.312;2022-07-06T09:26:28;99649.81;;;21.72;42.88
27144;BME280;14672;50.250;8.312;2022-07-06T09:28:58;99653.06;;;21.85;43.63
27144;BME280;14672;50.250;8.312;2022-07-06T09:31:27;99659.38;;;21.89;43.49
27144;BME280;14672;50.250;8.312;2022-07-06T09:33:58;99655.09;;;21.79;42.97
27144;BME280;14672;50.250;8.312;2022-07-06T09:36:48;99643.69;;;22.01;43.23
27144;BME280;14672;50.250;8.312;2022-07-06T09:41:51;99660.34;;;22.23;43.12
27144;BME280;14672;50.250;8.312;2022-07-06T09:46:56;99650.38;;;22.24;41.89
27144;BME280;14672;50.250;8.312;2022-07-06T09:49:23;99652.00;;;22.36;42.48
27144;BME280;14672;50.250;8.312;2022-07-06T09:51:54;99660.09;;;22.26;42.68
27144;BME280;14672;50.250;8.312;2022-07-06T09:54:20;99657.50;;;22.34;41.51
27144;BME280;14672;50.250;8.312;2022-07-06T09:56:48;99656.41;;;22.20;40.85
27144;BME280;14672;50.250;8.312;2022-07-06T09:59:24;99659.25;;;22.09;40.74
27144;BME280;14672;50.250;8.312;2022-07-06T10:01:59;99655.88;;;22.16;41.19
27144;BME280;14672;50.250;8.312;2022-07-06T10:04:28;99648.25;;;22.24;41.29
27144;BME280;14672;50.250;8.312;2022-07-06T10:06:56;99652.53;;;22.40;41.99
27144;BME280;14672;50.250;8.312;2022-07-06T10:09:25;99640.66;;;22.32;41.18
27144;BME280;14672;50.250;8.312;2022-07-06T10:12:00;99645.69;;;22.43;42.32
27144;BME280;14672;50.250;8.312;2022-07-06T10:14:32;99649.94;;;22.53;41.78
27144;BME280;14672;50.250;8.312;2022-07-06T10:17:00;99641.78;;;22.63;41.51
27144;BME280;14672;50.250;8.312;2022-07-06T10:19:29;99629.66;;;22.47;39.25
27144;BME280;14672;50.250;8.312;2022-07-06T10:22:00;99633.09;;;22.63;40.26
27144;BME280;14672;50.250;8.312;2022-07-06T10:24:28;99638.69;;;22.83;41.35
27144;BME280;14672;50.250;8.312;2022-07-06T10:26:55;99645.53;;;22.80;40.18
27144;BME280;14672;50.250;8.312;2022-07-06T10:29:21;99648.97;;;22.89;40.20
27144;BME280;14672;50.250;8.312;2022-07-06T10:31:48;99633.88;;;22.58;38.54
27144;BME280;14672;50.250;8.312;2022-07-06T10:34:18;99637.13;;;22.87;39.95
27144;BME280;14672;50.250;8.312;2022-07-06T10:36:50;99632.91;;;22.94;38.77
27144;BME280;14672;50.250;8.312;2022-07-06T10:39:16;99635.28;;;22.96;39.98
27144;BME280;14672;50.250;8.312;2022-07-06T10:43:01;99642.94;;;23.04;39.61
27144;BME280;14672;50.250;8.312;2022-07-06T10:50:51;99638.44;;;23.31;39.66
27144;BME280;14672;50.250;8.312;2022-07-06T10:53:25;99642.66;;;23.35;39.77
27144;BME280;14672;50.250;8.312;2022-07-06T10:55:56;99645.81;;;23.32;38.80
27144;BME280;14672;50.250;8.312;2022-07-06T10:58:48;99645.31;;;23.28;39.37
27144;BME280;14672;50.250;8.312;2022-07-06T11:01:17;99634.25;;;23.43;39.33
27144;BME280;14672;50.250;8.312;2022-07-06T11:03:50;99633.94;;;23.58;39.19
27144;BME280;14672;50.250;8.312;2022-07-06T11:06:34;99625.50;;;23.54;38.20
27144;BME280;14672;50.250;8.312;2022-07-06T11:09:05;99625.72;;;23.73;38.57
27144;BME280;14672;50.250;8.312;2022-07-06T11:19:23;99633.63;;;23.78;39.15
27144;BME280;14672;50.250;8.312;2022-07-06T11:24:26;99635.47;;;23.86;37.91
27144;BME280;14672;50.250;8.312;2022-07-06T11:26:54;99638.03;;;24.01;37.80
27144;BME280;14672;50.250;8.312;2022-07-06T11:29:23;99640.91;;;24.23;38.65
27144;BME280;14672;50.250;8.312;2022-07-06T11:31:53;99634.31;;;24.23;37.12
27144;BME280;14672;50.250;8.312;2022-07-06T11:34:34;99637.53;;;23.97;36.02
27144;BME280;14672;50.250;8.312;2022-07-06T11:37:04;99631.25;;;23.82;36.08
27144;BME280;14672;50.250;8.312;2022-07-06T11:39:33;99622.31;;;23.80;35.51
27144;BME280;14672;50.250;8.312;2022-07-06T11:42:00;99639.63;;;23.97;36.20
27144;BME280;14672;50.250;8.312;2022-07-06T11:44:27;99634.84;;;24.10;38.04
27144;BME280;14672;50.250;8.312;2022-07-06T11:46:53;99626.41;;;24.12;37.77
27144;BME280;14672;50.250;8.312;2022-07-06T11:49:22;99631.19;;;24.04;37.91
27144;BME280;14672;50.250;8.312;2022-07-06T11:51:48;99628.81;;;24.03;37.97
27144;BME280;14672;50.250;8.312;2022-07-06T11:54:20;99637.56;;;23.86;37.33
27144;BME280;14672;50.250;8.312;2022-07-06T11:56:53;99638.09;;;23.90;37.71
27144;BME280;14672;50.250;8.312;2022-07-06T11:59:29;99625.13;;;24.02;38.01
27144;BME280;14672;50.250;8.312;2022-07-06T12:02:09;99628.25;;;24.10;37.47
27144;BME280;14672;50.250;8.312;2022-07-06T12:04:41;99615.81;;;24.26;37.55
27144;BME280;14672;50.250;8.312;2022-07-06T12:07:15;99619.56;;;24.15;36.43
27144;BME280;14672;50.250;8.312;2022-07-06T12:09:44;99618.63;;;24.37;36.80
27144;BME280;14672;50.250;8.312;2022-07-06T12:12:13;99621.53;;;24.43;35.86
27144;BME280;14672;50.250;8.312;2022-07-06T12:14:41;99612.09;;;24.72;37.74
27144;BME280;14672;50.250;8.312;2022-07-06T12:17:10;99607.31;;;24.74;36.32
27144;BME280;14672;50.250;8.312;2022-07-06T12:19:37;99604.44;;;24.69;36.35
27144;BME280;14672;50.250;8.312;2022-07-06T12:22:05;99612.94;;;24.67;36.07
27144;BME280;14672;50.250;8.312;2022-07-06T12:24:33;99610.69;;;24.84;37.02
27144;BME280;14672;50.250;8.312;2022-07-06T12:27:17;99605.31;;;24.99;36.51
27144;BME280;14672;50.250;8.312;2022-07-06T12:29:45;99611.53;;;25.14;35.84
27144;BME280;14672;50.250;8.312;2022-07-06T17:18:56;99455.41;;;26.08;33.26
27144;BME280;14672;50.250;8.312;2022-07-06T17:21:24;99449.88;;;26.05;34.10
27144;BME280;14672;50.250;8.312;2022-07-06T17:23:51;99455.66;;;26.10;34.12
27144;BME280;14672;50.250;8.312;2022-07-06T17:26:17;99454.50;;;26.19;33.65
27144;BME280;14672;50.250;8.312;2022-07-06T17:28:44;99454.53;;;26.13;33.45
27144;BME280;14672;50.250;8.312;2022-07-06T17:31:10;99448.72;;;26.13;33.90
27144;BME280;14672;50.250;8.312;2022-07-06T17:33:39;99447.13;;;26.12;34.37
27144;BME280;14672;50.250;8.312;2022-07-06T17:36:09;99450.81;;;26.13;34.28
27144;BME280;14672;50.250;8.312;2022-07-06T17:38:35;99454.78;;;26.15;34.03
27144;BME280;14672;50.250;8.312;2022-07-06T17:41:07;99455.50;;;26.22;34.09
27144;BME280;14672;50.250;8.312;2022-07-06T17:43:36;99449.44;;;26.20;34.45
27144;BME280;14672;50.250;8.312;2022-07-06T17:46:02;99446.59;;;26.14;34.44
27144;BME280;14672;50.250;8.312;2022-07-06T17:48:31;99453.06;;;26.07;34.25
27144;BME280;14672;50.250;8.312;2022-07-06T17:50:57;99450.69;;;26.05;34.38
27144;BME280;14672;50.250;8.312;2022-07-06T17:53:25;99444.78;;;26.11;34.13
27144;BME280;14672;50.250;8.312;2022-07-06T17:55:52;99444.25;;;25.94;33.81
27144;BME280;14672;50.250;8.312;2022-07-06T17:58:20;99453.34;;;25.85;34.57
27144;BME280;14672;50.250;8.312;2022-07-06T18:00:47;99456.03;;;25.83;34.20
27144;BME280;14672;50.250;8.312;2022-07-06T18:03:13;99448.47;;;25.55;34.81
27144;BME280;14672;50.250;8.312;2022-07-06T18:05:39;99445.66;;;25.68;34.53
27144;BME280;14672;50.250;8.312;2022-07-06T18:08:05;99441.56;;;25.58;34.76
27144;BME280;14672;50.250;8.312;2022-07-06T18:10:34;99449.25;;;25.56;34.61
27144;BME280;14672;50.250;8.312;2022-07-06T18:13:00;99439.66;;;25.61;35.32
27144;BME280;14672;50.250;8.312;2022-07-06T18:15:29;99446.66;;;25.52;35.61
27144;BME280;14672;50.250;8.312;2022-07-06T18:17:56;99446.44;;;25.45;35.36
27144;BME280;14672;50.250;8.312;2022-07-06T18:20:22;99441.09;;;25.30;35.31